METAR Formatted Surface Weather Observation
Issued by NWS

Home | Current Version | Previous Version | Text Only | Print | Product List | Glossary On
Versions: 1 2 3 4 5
000
SAUS45 KPSR 261057
MTRFHU
METAR KFHU 261056Z AUTO 32004KT 10SM CLR 18/13 A3018 RMK AO2 SLP158
T01830128 $



USA.gov is the U.S. government's official web portal to all federal, state and local government web resources and services.